createdAt,value
2017-07-08T00:00:14.979Z,1014.7
2017-07-08T00:00:45.420Z,1014.7
2017-07-08T00:01:15.674Z,1014.7
2017-07-08T00:01:46.062Z,1014.7
2017-07-08T00:02:16.302Z,1014.7
2017-07-08T00:03:12.985Z,1014.7
2017-07-08T00:04:12.778Z,1014.6
2017-07-08T00:05:11.723Z,1014.6
2017-07-08T00:06:11.420Z,1014.6
2017-07-08T00:07:10.862Z,1014.6
2017-07-08T00:08:10.174Z,1014.6
2017-07-08T00:09:09.366Z,1014.6
2017-07-08T00:10:08.945Z,1014.6
2017-07-08T00:11:08.394Z,1014.7
2017-07-08T00:12:07.635Z,1014.7
2017-07-08T00:13:06.960Z,1014.7
2017-07-08T00:14:06.530Z,1014.7
2017-07-08T00:15:05.848Z,1014.7
2017-07-08T00:16:05.159Z,1014.7
2017-07-08T00:17:04.360Z,1014.7
2017-07-08T00:18:03.802Z,1014.7
2017-07-08T00:19:03.002Z,1014.7
2017-07-08T00:19:33.503Z,1014.7
2017-07-08T00:20:04.132Z,1014.7
2017-07-08T00:20:34.503Z,1014.7
2017-07-08T00:22:01.509Z,1014.7
2017-07-08T00:23:00.830Z,1014.7
2017-07-08T00:23:59.903Z,1014.7
2017-07-08T00:24:59.428Z,1014.7
2017-07-08T00:25:59.120Z,1014.7
2017-07-08T00:26:58.438Z,1014.8
2017-07-08T00:27:57.632Z,1014.8
2017-07-08T00:28:57.214Z,1014.8
2017-07-08T00:29:56.155Z,1014.8
2017-07-08T00:30:55.987Z,1014.8
2017-07-08T00:31:55.047Z,1014.8
2017-07-08T00:32:54.489Z,1014.8
2017-07-08T00:33:54.092Z,1014.8
2017-07-08T00:34:53.171Z,1014.8
2017-07-08T00:35:52.883Z,1014.8
2017-07-08T00:36:51.821Z,1014.8
2017-07-08T00:37:51.403Z,1014.9
2017-07-08T00:38:50.853Z,1014.8
2017-07-08T00:39:50.289Z,1014.9
2017-07-08T00:40:49.741Z,1014.9
2017-07-08T00:41:48.937Z,1014.9
2017-07-08T00:42:19.197Z,1014.9
2017-07-08T00:42:49.844Z,1014.8
2017-07-08T00:43:20.470Z,1014.8
2017-07-08T00:44:47.222Z,1014.9
2017-07-08T00:45:46.235Z,1014.9
2017-07-08T00:46:45.685Z,1014.8
2017-07-08T00:47:45.005Z,1014.9
2017-07-08T00:48:44.451Z,1014.9
2017-07-08T00:49:44.037Z,1014.8
2017-07-08T00:50:43.479Z,1014.8
2017-07-08T00:51:42.792Z,1014.8
2017-07-08T00:52:42.017Z,1014.8
2017-07-08T00:53:41.576Z,1014.8
2017-07-08T00:54:40.651Z,1014.8
2017-07-08T00:55:40.347Z,1014.8
2017-07-08T00:56:39.564Z,1014.8
2017-07-08T00:57:38.638Z,1014.8
2017-07-08T00:58:38.330Z,1014.8
2017-07-08T00:59:37.715Z,1014.8
2017-07-08T01:00:36.899Z,1014.8
2017-07-08T01:01:36.218Z,1014.8
2017-07-08T01:02:35.908Z,1014.8
2017-07-08T01:03:35.353Z,1014.7
2017-07-08T01:04:34.427Z,1014.7
2017-07-08T01:05:33.871Z,1014.8
2017-07-08T01:06:33.330Z,1014.8
2017-07-08T01:07:32.522Z,1014.8
2017-07-08T01:08:31.711Z,1014.8
2017-07-08T01:09:31.325Z,1014.8
2017-07-08T01:10:30.635Z,1014.8
2017-07-08T01:11:30.269Z,1014.8
2017-07-08T01:13:28.853Z,1014.8
2017-07-08T01:14:28.049Z,1014.8
2017-07-08T01:15:27.743Z,1014.9
2017-07-08T01:16:26.682Z,1014.8
2017-07-08T01:17:26.122Z,1014.8
2017-07-08T01:18:25.565Z,1014.8
2017-07-08T01:19:25.015Z,1014.8
2017-07-08T01:20:24.647Z,1014.8
2017-07-08T01:21:23.646Z,1014.8
2017-07-08T01:22:23.073Z,1014.8
2017-07-08T01:23:22.386Z,1014.8
2017-07-08T01:24:21.958Z,1014.8
2017-07-08T01:25:21.420Z,1014.8
2017-07-08T01:26:20.500Z,1014.8
2017-07-08T01:27:19.897Z,1014.8
2017-07-08T01:27:50.406Z,1014.8
2017-07-08T01:28:20.906Z,1014.7
2017-07-08T01:28:51.153Z,1014.7
2017-07-08T01:30:18.027Z,1014.8
2017-07-08T01:31:17.596Z,1014.7
2017-07-08T01:32:17.044Z,1014.8
2017-07-08T01:33:16.106Z,1014.8
2017-07-08T01:34:15.485Z,1014.8
2017-07-08T01:35:15.077Z,1014.7
2017-07-08T01:36:14.271Z,1014.7
2017-07-08T01:37:13.584Z,1014.8
2017-07-08T01:38:12.904Z,1014.7
2017-07-08T01:39:12.234Z,1014.8
2017-07-08T01:40:11.929Z,1014.8
2017-07-08T01:41:11.366Z,1014.7
2017-07-08T01:42:10.314Z,1014.8
2017-07-08T01:43:09.640Z,1014.8
2017-07-08T01:44:09.338Z,1014.8
2017-07-08T01:45:08.527Z,1014.8
2017-07-08T01:46:07.969Z,1014.8
2017-07-08T01:47:07.426Z,1014.8
2017-07-08T01:48:06.871Z,1014.8
2017-07-08T01:49:05.931Z,1014.8
2017-07-08T01:50:05.622Z,1014.8
2017-07-08T01:51:04.573Z,1014.9
2017-07-08T01:52:04.138Z,1014.8
2017-07-08T01:53:03.457Z,1014.8
2017-07-08T01:54:02.770Z,1014.8
2017-07-08T01:55:02.208Z,1014.9
2017-07-08T01:56:01.521Z,1014.9
2017-07-08T01:57:01.099Z,1014.9
2017-07-08T01:58:00.418Z,1014.9
2017-07-08T01:58:59.732Z,1014.9
2017-07-08T01:59:58.915Z,1014.9
2017-07-08T02:00:58.372Z,1014.9
2017-07-08T02:01:57.825Z,1014.9
2017-07-08T02:02:56.897Z,1014.9
2017-07-08T02:03:56.476Z,1014.9
2017-07-08T02:04:55.672Z,1015
2017-07-08T02:05:55.258Z,1015
2017-07-08T02:06:54.458Z,1015
2017-07-08T02:07:53.907Z,1015
2017-07-08T02:08:24.154Z,1015
2017-07-08T02:08:54.650Z,1015
2017-07-08T02:09:25.219Z,1015
2017-07-08T02:09:55.590Z,1015
2017-07-08T02:10:25.910Z,1015
2017-07-08T02:11:51.402Z,1015
2017-07-08T02:12:50.720Z,1015.1
2017-07-08T02:13:50.293Z,1015.1
2017-07-08T02:14:49.614Z,1015.1
2017-07-08T02:15:48.678Z,1015.1
2017-07-08T02:16:47.995Z,1015.2
2017-07-08T02:17:47.313Z,1015.1
2017-07-08T02:18:47.003Z,1015.1
2017-07-08T02:19:46.318Z,1015.2
2017-07-08T02:20:16.934Z,1015.2
2017-07-08T02:20:47.550Z,1015.2
2017-07-08T02:21:17.801Z,1015.2
2017-07-08T02:21:48.302Z,1015.1
2017-07-08T02:22:18.548Z,1015.1
2017-07-08T02:24:43.174Z,1015.2
2017-07-08T02:25:42.308Z,1015.1
2017-07-08T02:26:41.762Z,1015.1
2017-07-08T02:27:40.966Z,1015.1
2017-07-08T02:28:40.283Z,1015.1
2017-07-08T02:29:39.734Z,1015.1
2017-07-08T02:30:38.921Z,1015.1
2017-07-08T02:31:38.368Z,1015.1
2017-07-08T02:32:37.930Z,1015.1
2017-07-08T02:33:37.384Z,1015.1
2017-07-08T02:34:36.570Z,1015.2
2017-07-08T02:35:35.767Z,1015.2
2017-07-08T02:36:35.233Z,1015.2
2017-07-08T02:37:34.549Z,1015.2
2017-07-08T02:38:33.878Z,1015.2
2017-07-08T02:39:33.444Z,1015.2
2017-07-08T02:40:32.516Z,1015.2
2017-07-08T02:41:31.833Z,1015.2
2017-07-08T02:42:31.291Z,1015.2
2017-07-08T02:43:30.999Z,1015.2
2017-07-08T02:44:29.953Z,1015.2
2017-07-08T02:45:29.520Z,1015.2
2017-07-08T02:46:28.715Z,1015.2
2017-07-08T02:47:28.161Z,1015.2
2017-07-08T02:48:27.743Z,1015.2
2017-07-08T02:49:26.961Z,1015.3
2017-07-08T02:50:26.156Z,1015.3
2017-07-08T02:51:25.481Z,1015.3
2017-07-08T02:52:24.796Z,1015.3
2017-07-08T02:53:24.108Z,1015.3
2017-07-08T02:54:23.801Z,1015.2
2017-07-08T02:55:23.001Z,1015.2
2017-07-08T02:56:22.234Z,1015.2
2017-07-08T02:57:21.677Z,1015.2
2017-07-08T02:59:20.639Z,1015.2
2017-07-08T03:00:19.959Z,1015.2
2017-07-08T03:01:19.027Z,1015.2
2017-07-08T03:02:18.470Z,1015.2
2017-07-08T03:02:48.737Z,1015.2
2017-07-08T03:03:19.119Z,1015.2
2017-07-08T03:04:17.059Z,1015.2
2017-07-08T03:05:16.505Z,1015.2
2017-07-08T03:06:15.693Z,1015.1
2017-07-08T03:07:15.013Z,1015.2
2017-07-08T03:08:14.729Z,1015.1
2017-07-08T03:09:14.177Z,1015.1
2017-07-08T03:10:13.267Z,1015.1
2017-07-08T03:11:12.710Z,1015.2
2017-07-08T03:12:11.913Z,1015.2
2017-07-08T03:13:11.360Z,1015.2
2017-07-08T03:14:10.535Z,1015.2
2017-07-08T03:16:09.516Z,1015.2
2017-07-08T03:17:08.651Z,1015.2
2017-07-08T03:18:08.089Z,1015.2
2017-07-08T03:19:07.674Z,1015.2
2017-07-08T03:20:06.757Z,1015.2
2017-07-08T03:21:05.952Z,1015.2
2017-07-08T03:22:05.275Z,1015.2
2017-07-08T03:23:05.089Z,1015.2
2017-07-08T03:24:04.158Z,1015.3
2017-07-08T03:25:03.728Z,1015.3
2017-07-08T03:26:02.923Z,1015.3
2017-07-08T03:27:02.495Z,1015.4
2017-07-08T03:28:01.804Z,1015.2
2017-07-08T03:29:01.007Z,1015.3
2017-07-08T03:30:00.217Z,1015.3
2017-07-08T03:30:59.541Z,1015.3
2017-07-08T03:31:58.858Z,1015.3
2017-07-08T03:32:58.313Z,1015.3
2017-07-08T03:33:57.464Z,1015.3
2017-07-08T03:34:56.968Z,1015.3
2017-07-08T03:35:56.284Z,1015.3
2017-07-08T03:36:55.978Z,1015.3
2017-07-08T03:37:55.175Z,1015.3
2017-07-08T03:38:54.424Z,1015.3
2017-07-08T03:39:53.996Z,1015.3
2017-07-08T03:40:53.190Z,1015.3
2017-07-08T03:41:52.505Z,1015.3
2017-07-08T03:42:51.689Z,1015.3
2017-07-08T03:43:51.141Z,1015.3
2017-07-08T03:44:50.595Z,1015.3
2017-07-08T03:45:49.659Z,1015.3
2017-07-08T03:46:48.979Z,1015.3
2017-07-08T03:47:48.555Z,1015.3
2017-07-08T03:48:47.745Z,1015.3
2017-07-08T03:49:47.194Z,1015.4
2017-07-08T03:50:46.774Z,1015.4
2017-07-08T03:51:45.972Z,1015.4
2017-07-08T03:52:45.423Z,1015.4
2017-07-08T03:53:44.485Z,1015.3
2017-07-08T03:54:44.058Z,1015.4
2017-07-08T03:55:43.380Z,1015.3
2017-07-08T03:56:42.582Z,1015.3
2017-07-08T03:57:42.156Z,1015.3
2017-07-08T03:58:41.477Z,1015.3
2017-07-08T03:59:40.665Z,1015.4
2017-07-08T04:00:39.981Z,1015.3
2017-07-08T04:01:39.176Z,1015.3
2017-07-08T04:02:38.877Z,1015.4
2017-07-08T04:03:38.202Z,1015.4
2017-07-08T04:04:37.522Z,1015.4
2017-07-08T04:05:36.723Z,1015.4
2017-07-08T04:06:35.919Z,1015.4
2017-07-08T04:07:35.249Z,1015.4
2017-07-08T04:08:34.824Z,1015.4
2017-07-08T04:09:34.261Z,1015.4
2017-07-08T04:10:33.715Z,1015.4
2017-07-08T04:11:33.036Z,1015.4
2017-07-08T04:12:32.226Z,1015.4
2017-07-08T04:13:31.409Z,1015.4
2017-07-08T04:14:31.109Z,1015.4
2017-07-08T04:15:30.051Z,1015.4
2017-07-08T04:16:29.627Z,1015.4
2017-07-08T04:17:28.693Z,1015.4
2017-07-08T04:18:28.393Z,1015.4
2017-07-08T04:19:27.469Z,1015.4
2017-07-08T04:20:26.999Z,1015.4
2017-07-08T04:21:26.320Z,1015.4
2017-07-08T04:22:25.521Z,1015.4
2017-07-08T04:23:24.886Z,1015.5
2017-07-08T04:24:24.457Z,1015.5
2017-07-08T04:25:23.778Z,1015.5
2017-07-08T04:27:22.469Z,1015.5
2017-07-08T04:28:21.790Z,1015.5
2017-07-08T04:29:20.866Z,1015.5
2017-07-08T04:29:51.485Z,1015.5
2017-07-08T04:31:19.688Z,1015.5
2017-07-08T04:32:18.889Z,1015.5
2017-07-08T04:33:18.591Z,1015.5
2017-07-08T04:34:17.786Z,1015.5
2017-07-08T04:35:17.303Z,1015.4
2017-07-08T04:36:16.743Z,1015.5
2017-07-08T04:37:15.821Z,1015.5
2017-07-08T04:38:15.274Z,1015.5
2017-07-08T04:39:14.583Z,1015.4
2017-07-08T04:40:14.029Z,1015.4
2017-07-08T04:41:13.093Z,1015.4
2017-07-08T04:43:11.941Z,1015.5
2017-07-08T04:44:11.395Z,1015.5
2017-07-08T04:45:10.896Z,1015.5
2017-07-08T04:46:09.976Z,1015.5
2017-07-08T04:47:09.297Z,1015.5
2017-07-08T04:48:08.865Z,1015.4
2017-07-08T04:49:08.056Z,1015.4
2017-07-08T04:50:07.383Z,1015.4
2017-07-08T04:51:06.960Z,1015.5
2017-07-08T04:52:06.145Z,1015.5
2017-07-08T04:53:05.591Z,1015.5
2017-07-08T04:54:04.788Z,1015.5
2017-07-08T04:55:04.241Z,1015.5
2017-07-08T04:56:03.557Z,1015.5
2017-07-08T04:58:02.277Z,1015.6
2017-07-08T04:59:01.349Z,1015.6
2017-07-08T05:00:00.930Z,1015.6
2017-07-08T05:01:00.383Z,1015.6
2017-07-08T05:01:59.453Z,1015.6
2017-07-08T05:02:58.771Z,1015.6
2017-07-08T05:03:58.461Z,1015.6
2017-07-08T05:04:57.528Z,1015.5
2017-07-08T05:05:57.213Z,1015.6
2017-07-08T05:06:56.411Z,1015.6
2017-07-08T05:07:55.978Z,1015.5
2017-07-08T05:08:54.903Z,1015.5
2017-07-08T05:09:54.473Z,1015.6
2017-07-08T05:10:53.926Z,1015.5
2017-07-08T05:11:53.380Z,1015.6
2017-07-08T05:12:52.326Z,1015.5
2017-07-08T05:13:52.023Z,1015.5
2017-07-08T05:14:51.478Z,1015.5
2017-07-08T05:15:50.557Z,1015.6
2017-07-08T05:16:50.129Z,1015.5
2017-07-08T05:17:49.310Z,1015.5
2017-07-08T05:18:48.512Z,1015.5
2017-07-08T05:19:19.137Z,1015.5
2017-07-08T05:19:49.756Z,1015.5
2017-07-08T05:20:47.424Z,1015.4
2017-07-08T05:21:46.624Z,1015.5
2017-07-08T05:22:46.202Z,1015.5
2017-07-08T05:23:45.386Z,1015.5
2017-07-08T05:24:44.832Z,1015.5
2017-07-08T05:25:44.017Z,1015.5
2017-07-08T05:26:43.341Z,1015.5
2017-07-08T05:27:42.778Z,1015.5
2017-07-08T05:28:42.225Z,1015.5
2017-07-08T05:29:41.659Z,1015.5
2017-07-08T05:30:40.847Z,1015.5
2017-07-08T05:31:40.296Z,1015.5
2017-07-08T05:32:39.603Z,1015.6
2017-07-08T05:33:39.180Z,1015.5
2017-07-08T05:34:38.494Z,1015.6
2017-07-08T05:35:37.754Z,1015.6
2017-07-08T05:36:36.933Z,1015.6
2017-07-08T05:37:36.755Z,1015.6
2017-07-08T05:38:36.100Z,1015.6
2017-07-08T05:39:35.051Z,1015.6
2017-07-08T05:40:05.433Z,1015.6
2017-07-08T05:40:35.905Z,1015.6
2017-07-08T05:41:33.956Z,1015.6
2017-07-08T05:42:33.276Z,1015.6
2017-07-08T05:43:32.747Z,1015.6
2017-07-08T05:44:32.313Z,1015.6
2017-07-08T05:45:31.511Z,1015.6
2017-07-08T05:46:30.634Z,1015.6
2017-07-08T05:47:30.336Z,1015.6
2017-07-08T05:48:29.400Z,1015.5
2017-07-08T05:49:28.731Z,1015.5
2017-07-08T05:50:28.306Z,1015.5
2017-07-08T05:50:58.811Z,1015.5
2017-07-08T05:51:29.454Z,1015.5
2017-07-08T05:52:00.073Z,1015.5
2017-07-08T05:53:26.316Z,1015.5
2017-07-08T05:54:26.014Z,1015.5
2017-07-08T05:55:24.962Z,1015.6
2017-07-08T05:56:24.662Z,1015.6
2017-07-08T05:57:23.987Z,1015.6
2017-07-08T05:58:23.163Z,1015.6
2017-07-08T05:59:22.486Z,1015.6
2017-07-08T06:00:22.173Z,1015.6
2017-07-08T06:01:21.527Z,1015.5
2017-07-08T06:02:20.603Z,1015.5
2017-07-08T06:03:20.169Z,1015.4
2017-07-08T06:05:18.770Z,1015.4
2017-07-08T06:06:18.233Z,1015.4
2017-07-08T06:07:17.426Z,1015.4
2017-07-08T06:08:16.870Z,1015.4
2017-07-08T06:09:16.574Z,1015.4
2017-07-08T06:10:16.045Z,1015.4
2017-07-08T06:11:15.000Z,1015.3
2017-07-08T06:12:14.574Z,1015.3
2017-07-08T06:13:14.151Z,1015.3
2017-07-08T06:14:13.225Z,1015.3
2017-07-08T06:15:12.920Z,1015.3
2017-07-08T06:17:11.757Z,1015.4
2017-07-08T06:18:10.832Z,1015.4
2017-07-08T06:19:10.270Z,1015.4
2017-07-08T06:20:09.737Z,1015.4
2017-07-08T06:22:08.323Z,1015.4
2017-07-08T06:23:07.759Z,1015.4
2017-07-08T06:24:07.327Z,1015.4
2017-07-08T06:25:06.783Z,1015.5
2017-07-08T06:26:06.098Z,1015.4
2017-07-08T06:27:05.546Z,1015.5
2017-07-08T06:28:04.995Z,1015.5
2017-07-08T06:29:04.057Z,1015.5
2017-07-08T06:30:03.625Z,1015.6
2017-07-08T06:31:02.942Z,1015.6
2017-07-08T06:32:02.118Z,1015.6
2017-07-08T06:33:01.577Z,1015.6
2017-07-08T06:34:01.022Z,1015.6
2017-07-08T06:35:00.597Z,1015.6
2017-07-08T06:36:59.304Z,1015.6
2017-07-08T06:37:58.498Z,1015.6
2017-07-08T06:38:57.950Z,1015.7
2017-07-08T06:39:57.400Z,1015.7
2017-07-08T06:40:56.856Z,1015.7
2017-07-08T06:41:56.556Z,1015.7
2017-07-08T06:42:55.502Z,1015.7
2017-07-08T06:43:54.944Z,1015.8
2017-07-08T06:44:54.768Z,1015.8
2017-07-08T06:45:54.084Z,1015.7
2017-07-08T06:46:53.147Z,1015.9
2017-07-08T06:47:52.839Z,1015.9
2017-07-08T06:48:52.027Z,1015.9
2017-07-08T06:49:51.477Z,1015.9
2017-07-08T06:51:50.307Z,1015.9
2017-07-08T06:52:49.629Z,1015.9
2017-07-08T06:53:49.078Z,1015.9
2017-07-08T06:54:48.529Z,1016
2017-07-08T06:55:47.846Z,1016
2017-07-08T06:56:47.163Z,1015.9
2017-07-08T06:57:46.819Z,1016
2017-07-08T06:58:46.275Z,1016
2017-07-08T06:59:45.496Z,1016
2017-07-08T07:00:45.077Z,1016
2017-07-08T07:01:44.280Z,1016
2017-07-08T07:02:43.968Z,1016
2017-07-08T07:03:43.408Z,1015.9
2017-07-08T07:04:42.414Z,1016
2017-07-08T07:05:42.106Z,1016
2017-07-08T07:06:41.680Z,1016
2017-07-08T07:07:40.613Z,1016
2017-07-08T07:08:40.314Z,1016
2017-07-08T07:09:39.634Z,1016
2017-07-08T07:10:39.322Z,1016
2017-07-08T07:11:38.710Z,1016.1
2017-07-08T07:12:37.854Z,1016.1
2017-07-08T07:13:37.293Z,1016
2017-07-08T07:14:36.615Z,1016.1
2017-07-08T07:15:36.313Z,1016.1
2017-07-08T07:16:35.751Z,1016.1
2017-07-08T07:17:34.979Z,1016.1
2017-07-08T07:18:34.308Z,1016.1
2017-07-08T07:19:34.018Z,1016.1
2017-07-08T07:20:33.221Z,1016.1
2017-07-08T07:21:32.418Z,1016.1
2017-07-08T07:22:32.113Z,1016.1
2017-07-08T07:23:31.427Z,1016.1
2017-07-08T07:24:30.618Z,1016.1
2017-07-08T07:25:30.080Z,1016.1
2017-07-08T07:26:29.784Z,1016.1
2017-07-08T07:27:29.230Z,1016.2
2017-07-08T07:28:28.369Z,1016.1
2017-07-08T07:29:27.837Z,1016.2
2017-07-08T07:30:27.345Z,1016.2
2017-07-08T07:31:26.799Z,1016.1
2017-07-08T07:32:26.008Z,1016.1
2017-07-08T07:33:25.579Z,1016.1
2017-07-08T07:34:25.183Z,1016.2
2017-07-08T07:35:24.499Z,1016.1
2017-07-08T07:36:24.074Z,1016.1
2017-07-08T07:37:23.140Z,1016.1
2017-07-08T07:38:22.707Z,1016.2
2017-07-08T07:38:53.083Z,1016.2
2017-07-08T07:39:23.712Z,1016.2
2017-07-08T07:39:54.349Z,1016.2
2017-07-08T07:40:24.977Z,1016.2
2017-07-08T07:40:55.618Z,1016.2
2017-07-08T07:41:26.001Z,1016.1
2017-07-08T07:41:56.384Z,1016.1
2017-07-08T07:44:19.326Z,1016.2
2017-07-08T07:46:17.846Z,1016.2
2017-07-08T07:47:17.675Z,1016.2
2017-07-08T07:48:16.743Z,1016.2
2017-07-08T07:49:16.448Z,1016.2
2017-07-08T07:50:15.898Z,1016.2
2017-07-08T07:51:14.960Z,1016.2
2017-07-08T07:52:14.774Z,1016.2
2017-07-08T07:52:45.417Z,1016.2
2017-07-08T07:53:16.045Z,1016.2
2017-07-08T07:53:46.556Z,1016.2
2017-07-08T07:54:16.937Z,1016.2
2017-07-08T07:55:12.615Z,1016.2
2017-07-08T07:56:12.247Z,1016.3
2017-07-08T07:57:11.477Z,1016.3
2017-07-08T07:58:10.929Z,1016.3
2017-07-08T07:59:10.502Z,1016.3
2017-07-08T07:59:41.138Z,1016.3
2017-07-08T08:00:11.519Z,1016.3
2017-07-08T08:01:09.452Z,1016.3
2017-07-08T08:02:08.721Z,1016.3
2017-07-08T08:03:08.049Z,1016.3
2017-07-08T08:04:07.748Z,1016.3
2017-07-08T08:05:07.194Z,1016.4
2017-07-08T08:06:06.199Z,1016.4
2017-07-08T08:07:05.828Z,1016.4
2017-07-08T08:08:05.145Z,1016.4
2017-07-08T08:09:04.495Z,1016.4
2017-07-08T08:10:04.171Z,1016.4
2017-07-08T08:10:34.542Z,1016.4
2017-07-08T08:11:04.855Z,1016.4
2017-07-08T08:11:35.010Z,1016.4
2017-07-08T08:12:05.384Z,1016.4
2017-07-08T08:12:35.647Z,1016.4
2017-07-08T08:14:02.021Z,1016.4
2017-07-08T08:16:00.850Z,1016.4
2017-07-08T08:17:00.031Z,1016.5
2017-07-08T08:17:59.726Z,1016.4
2017-07-08T08:18:58.850Z,1016.4
2017-07-08T08:19:58.171Z,1016.4
2017-07-08T08:20:57.746Z,1016.4
2017-07-08T08:21:57.433Z,1016.4
2017-07-08T08:22:56.490Z,1016.4
2017-07-08T08:23:56.048Z,1016.4
2017-07-08T08:24:55.738Z,1016.4
2017-07-08T08:25:55.064Z,1016.4
2017-07-08T08:26:54.509Z,1016.4
2017-07-08T08:27:54.083Z,1016.4
2017-07-08T08:28:53.156Z,1016.4
2017-07-08T08:29:52.995Z,1016.4
2017-07-08T08:30:52.385Z,1016.3
2017-07-08T08:31:51.779Z,1016.4
2017-07-08T08:32:50.841Z,1016.4
2017-07-08T08:33:50.674Z,1016.4
2017-07-08T08:34:50.132Z,1016.4
2017-07-08T08:35:49.446Z,1016.4
2017-07-08T08:36:48.635Z,1016.4
2017-07-08T08:37:48.084Z,1016.4
2017-07-08T08:38:47.418Z,1016.4
2017-07-08T08:39:46.867Z,1016.4
2017-07-08T08:40:46.441Z,1016.4
2017-07-08T08:41:45.895Z,1016.3
2017-07-08T08:42:45.486Z,1016.3
2017-07-08T08:43:44.927Z,1016.3
2017-07-08T08:44:44.390Z,1016.3
2017-07-08T08:45:43.594Z,1016.3
2017-07-08T08:46:43.025Z,1016.3
2017-07-08T08:47:42.598Z,1016.3
2017-07-08T08:48:42.049Z,1016.3
2017-07-08T08:49:41.607Z,1016.3
2017-07-08T08:50:41.041Z,1016.3
2017-07-08T08:51:40.100Z,1016.3
2017-07-08T08:52:39.671Z,1016.3
2017-07-08T08:53:38.996Z,1016.3
2017-07-08T08:54:38.442Z,1016.3
2017-07-08T08:55:38.013Z,1016.3
2017-07-08T08:56:37.587Z,1016.3
2017-07-08T08:57:36.788Z,1016.3
2017-07-08T08:58:36.424Z,1016.3
2017-07-08T08:59:35.986Z,1016.3
2017-07-08T09:00:35.185Z,1016.3
2017-07-08T09:01:34.886Z,1016.2
2017-07-08T09:02:34.210Z,1016.3
2017-07-08T09:04:33.063Z,1016.3
2017-07-08T09:05:32.757Z,1016.2
2017-07-08T09:06:32.086Z,1016.2
2017-07-08T09:07:31.285Z,1016.2
2017-07-08T09:08:30.856Z,1016.3
2017-07-08T09:09:01.244Z,1016.3
2017-07-08T09:09:31.619Z,1016.3
2017-07-08T09:10:29.692Z,1016.3
2017-07-08T09:11:29.270Z,1016.3
2017-07-08T09:12:28.584Z,1016.3
2017-07-08T09:13:27.900Z,1016.4
2017-07-08T09:14:27.602Z,1016.4
2017-07-08T09:15:27.047Z,1016.4
2017-07-08T09:16:26.383Z,1016.4
2017-07-08T09:17:25.710Z,1016.3
2017-07-08T09:18:25.542Z,1016.3
2017-07-08T09:19:24.604Z,1016.3
2017-07-08T09:20:24.433Z,1016.3
2017-07-08T09:21:23.634Z,1016.3
2017-07-08T09:22:23.195Z,1016.3
2017-07-08T09:23:22.383Z,1016.3
2017-07-08T09:24:22.079Z,1016.4
2017-07-08T09:25:21.275Z,1016.4
2017-07-08T09:26:20.717Z,1016.5
2017-07-08T09:27:20.166Z,1016.4
2017-07-08T09:28:19.992Z,1016.4
2017-07-08T09:29:19.312Z,1016.4
2017-07-08T09:30:18.767Z,1016.4
2017-07-08T09:31:18.091Z,1016.4
2017-07-08T09:32:17.406Z,1016.4
2017-07-08T09:34:16.565Z,1016.4
2017-07-08T09:35:15.882Z,1016.4
2017-07-08T09:36:15.211Z,1016.4
2017-07-08T09:37:14.899Z,1016.4
2017-07-08T09:38:14.083Z,1016.4
2017-07-08T09:39:13.531Z,1016.4
2017-07-08T09:40:13.226Z,1016.5
2017-07-08T09:41:12.544Z,1016.5
2017-07-08T09:42:11.906Z,1016.4
2017-07-08T09:43:11.344Z,1016.5
2017-07-08T09:44:11.172Z,1016.4
2017-07-08T09:45:10.615Z,1016.5
2017-07-08T09:46:10.059Z,1016.5
2017-07-08T09:47:09.140Z,1016.5
2017-07-08T09:48:08.873Z,1016.5
2017-07-08T09:49:08.444Z,1016.5
2017-07-08T09:50:07.636Z,1016.5
2017-07-08T09:51:06.959Z,1016.5
2017-07-08T09:52:06.783Z,1016.5
2017-07-08T09:53:06.110Z,1016.5
2017-07-08T09:54:05.423Z,1016.5
2017-07-08T09:55:05.123Z,1016.5
2017-07-08T09:56:04.307Z,1016.5
2017-07-08T09:57:03.876Z,1016.4
2017-07-08T09:58:03.455Z,1016.5
2017-07-08T09:59:02.895Z,1016.5
2017-07-08T10:00:02.299Z,1016.5
2017-07-08T10:01:01.725Z,1016.5
2017-07-08T10:01:32.341Z,1016.5
2017-07-08T10:02:03.017Z,1016.5
2017-07-08T10:02:33.636Z,1016.5
2017-07-08T10:03:04.271Z,1016.4
2017-07-08T10:03:34.639Z,1016.4
2017-07-08T10:04:59.376Z,1016.4
2017-07-08T10:05:59.207Z,1016.6
2017-07-08T10:06:58.400Z,1016.5
2017-07-08T10:07:58.226Z,1016.6
2017-07-08T10:08:57.311Z,1016.6
2017-07-08T10:09:57.016Z,1016.6
2017-07-08T10:10:56.211Z,1016.6
2017-07-08T10:11:55.666Z,1016.6
2017-07-08T10:12:55.252Z,1016.5
2017-07-08T10:13:54.748Z,1016.6
2017-07-08T10:14:25.143Z,1016.6
2017-07-08T10:14:55.654Z,1016.6
2017-07-08T10:15:53.733Z,1016.5
2017-07-08T10:16:53.197Z,1016.5
2017-07-08T10:18:52.165Z,1016.5
2017-07-08T10:19:51.560Z,1016.5
2017-07-08T10:21:50.544Z,1016.5
2017-07-08T10:22:50.072Z,1016.5
2017-07-08T10:23:49.274Z,1016.6
2017-07-08T10:24:48.843Z,1016.6
2017-07-08T10:25:48.021Z,1016.6
2017-07-08T10:26:47.582Z,1016.6
2017-07-08T10:27:47.034Z,1016.6
2017-07-08T10:28:46.731Z,1016.7
2017-07-08T10:29:46.059Z,1016.7
2017-07-08T10:30:45.260Z,1016.7
2017-07-08T10:31:45.097Z,1016.7
2017-07-08T10:32:44.413Z,1016.7
2017-07-08T10:33:43.617Z,1016.6
2017-07-08T10:35:42.460Z,1016.7
2017-07-08T10:36:42.287Z,1016.7
2017-07-08T10:37:41.608Z,1016.5
2017-07-08T10:38:40.803Z,1016.6
2017-07-08T10:39:40.499Z,1016.6
2017-07-08T10:40:39.683Z,1016.6
2017-07-08T10:41:39.117Z,1016.5
2017-07-08T10:42:38.545Z,1016.6
2017-07-08T10:43:38.118Z,1016.6
2017-07-08T10:44:37.571Z,1016.6
2017-07-08T10:45:37.010Z,1016.6
2017-07-08T10:47:35.597Z,1016.7
2017-07-08T10:48:35.168Z,1016.7
2017-07-08T10:49:34.617Z,1016.7
2017-07-08T10:50:34.072Z,1016.7
2017-07-08T10:51:33.275Z,1016.7
2017-07-08T10:52:32.970Z,1016.7
2017-07-08T10:53:32.166Z,1016.8
2017-07-08T10:54:31.621Z,1016.7
2017-07-08T10:55:31.185Z,1016.7
2017-07-08T10:56:30.645Z,1016.7
2017-07-08T10:57:30.081Z,1016.7
2017-07-08T10:58:29.285Z,1016.7
2017-07-08T10:59:28.854Z,1016.7
2017-07-08T11:00:28.063Z,1016.7
2017-07-08T11:01:27.632Z,1016.7
2017-07-08T11:02:27.212Z,1016.7
2017-07-08T11:03:26.162Z,1016.6
2017-07-08T11:04:25.600Z,1016.6
2017-07-08T11:05:25.289Z,1016.6
2017-07-08T11:06:24.597Z,1016.7
2017-07-08T11:07:23.787Z,1016.6
2017-07-08T11:08:23.483Z,1016.6
2017-07-08T11:09:22.805Z,1016.6
2017-07-08T11:10:22.486Z,1016.6
2017-07-08T11:11:21.674Z,1016.5
2017-07-08T11:12:21.364Z,1016.5
2017-07-08T11:13:20.304Z,1016.6
2017-07-08T11:13:50.816Z,1016.6
2017-07-08T11:14:21.206Z,1016.5
2017-07-08T11:15:19.208Z,1016.5
2017-07-08T11:16:18.901Z,1016.5
2017-07-08T11:17:17.979Z,1016.6
2017-07-08T11:18:17.804Z,1016.6
2017-07-08T11:19:17.127Z,1016.5
2017-07-08T11:20:16.317Z,1016.4
2017-07-08T11:21:15.883Z,1016.4
2017-07-08T11:22:15.413Z,1016.5
2017-07-08T11:23:14.610Z,1016.5
2017-07-08T11:24:14.169Z,1016.5
2017-07-08T11:24:44.422Z,1016.5
2017-07-08T11:26:12.795Z,1016.5
2017-07-08T11:27:12.496Z,1016.4
2017-07-08T11:28:11.687Z,1016.5
2017-07-08T11:29:11.379Z,1016.5
2017-07-08T11:30:10.586Z,1016.5
2017-07-08T11:31:10.049Z,1016.5
2017-07-08T11:32:09.743Z,1016.5
2017-07-08T11:33:08.957Z,1016.5
2017-07-08T11:34:08.647Z,1016.5
2017-07-08T11:35:07.711Z,1016.4
2017-07-08T11:36:07.405Z,1016.4
2017-07-08T11:37:06.725Z,1016.4
2017-07-08T11:38:06.428Z,1016.4
2017-07-08T11:39:05.613Z,1016.4
2017-07-08T11:40:05.299Z,1016.4
2017-07-08T11:41:04.485Z,1016.4
2017-07-08T11:42:04.071Z,1016.4
2017-07-08T11:43:03.391Z,1016.4
2017-07-08T11:44:02.949Z,1016.4
2017-07-08T11:45:02.139Z,1016.4
2017-07-08T11:46:01.770Z,1016.4
2017-07-08T11:47:01.344Z,1016.3
2017-07-08T11:48:00.534Z,1016.3
2017-07-08T11:49:00.242Z,1016.3
2017-07-08T11:49:59.700Z,1016.3
2017-07-08T11:50:58.969Z,1016.3
2017-07-08T11:51:58.286Z,1016.3
2017-07-08T11:52:57.993Z,1016.3
2017-07-08T11:53:57.203Z,1016.4
2017-07-08T11:54:56.888Z,1016.3
2017-07-08T11:55:56.221Z,1016.3
2017-07-08T11:56:55.681Z,1016.4
2017-07-08T11:57:55.385Z,1016.4
2017-07-08T11:58:54.343Z,1016.3
2017-07-08T11:59:53.933Z,1016.3
2017-07-08T12:00:53.561Z,1016.3
2017-07-08T12:01:52.886Z,1016.2
2017-07-08T12:02:52.614Z,1016.2
2017-07-08T12:03:51.769Z,1016.2
2017-07-08T12:04:51.082Z,1016.2
2017-07-08T12:05:50.918Z,1016.2
2017-07-08T12:06:50.103Z,1016.2
2017-07-08T12:07:49.799Z,1016.2
2017-07-08T12:09:48.756Z,1016.3
2017-07-08T12:10:48.091Z,1016.2
2017-07-08T12:11:47.553Z,1016.2
2017-07-08T12:12:47.118Z,1016.3
2017-07-08T12:13:46.442Z,1016.2
2017-07-08T12:14:45.895Z,1016.2
2017-07-08T12:16:44.852Z,1016.2
2017-07-08T12:17:44.306Z,1016.3
2017-07-08T12:18:43.776Z,1016.3
2017-07-08T12:19:43.088Z,1016.2